Time;durP1;ratioP1;P1;durP2;ratioP2;P2;SDS_P1;SDS_P2;PMS_P1;PMS_P2;Temp;Humidity;BMP_temperature;BMP_pressure;BME280_temperature;BME280_humidity;BME280_pressure;Samples;Min_cycle;Max_cycle;Signal;HPM_P1;HPM_P2
2021/07/27 00:01:11;;;;;;;14.63;4.22;;;;;;;24.03;43.74;100201.38;5038193;28;20177;-69
2021/07/27 00:03:37;;;;;;;11.60;4.57;;;;;;;23.98;43.31;100195.88;5040051;28;20302;-69
2021/07/27 00:06:10;;;;;;;23.30;5.22;;;;;;;23.83;43.97;100201.75;5037394;28;20038;-72
2021/07/27 00:08:36;;;;;;;14.27;4.57;;;;;;;24.05;43.50;100200.09;5023632;28;20049;-69
2021/07/27 00:11:09;;;;;;;14.70;4.72;;;;;;;24.12;43.33;100205.38;5037953;28;20076;-69
2021/07/27 00:13:35;;;;;;;13.25;4.60;;;;;;;24.10;43.24;100194.78;5035053;28;20084;-69
2021/07/27 00:16:01;;;;;;;11.40;4.40;;;;;;;24.24;43.09;100199.91;5033203;28;20044;-72
2021/07/27 00:18:27;;;;;;;8.77;4.63;;;;;;;24.36;42.69;100189.91;5023779;28;20030;-69
2021/07/27 00:20:52;;;;;;;12.82;4.47;;;;;;;24.29;42.71;100206.28;5033531;28;20108;-69
2021/07/27 00:23:18;;;;;;;10.85;4.60;;;;;;;24.18;42.48;100199.00;5016008;28;20034;-72
2021/07/27 00:25:44;;;;;;;9.25;4.45;;;;;;;24.16;42.47;100203.81;5039962;28;20029;-69
2021/07/27 00:28:12;;;;;;;10.60;4.20;;;;;;;24.13;42.54;100196.19;5033185;28;20271;-69
2021/07/27 00:30:37;;;;;;;13.38;3.47;;;;;;;24.14;42.69;100209.47;5040179;28;20029;-71
2021/07/27 00:33:03;;;;;;;7.60;4.28;;;;;;;23.96;43.00;100203.41;5039822;28;20033;-70
2021/07/27 00:35:31;;;;;;;12.85;4.50;;;;;;;23.93;42.86;100210.13;5035216;28;20037;-69
2021/07/27 00:38:09;;;;;;;11.07;3.72;;;;;;;24.02;42.78;100222.22;5034699;28;20398;-69
2021/07/27 00:40:38;;;;;;;8.65;3.38;;;;;;;24.04;42.83;100211.97;5029781;28;20029;-72
2021/07/27 00:43:06;;;;;;;14.70;3.75;;;;;;;24.03;42.77;100220.31;5039345;28;20037;-69
2021/07/27 00:45:32;;;;;;;10.98;4.28;;;;;;;24.21;42.15;100214.75;5039482;28;20075;-69
2021/07/27 00:47:58;;;;;;;7.60;4.40;;;;;;;24.17;43.71;100216.28;5039150;28;20259;-69
2021/07/27 00:50:24;;;;;;;10.02;3.72;;;;;;;24.04;44.39;100205.75;5039198;28;20029;-72
2021/07/27 00:52:50;;;;;;;13.25;4.13;;;;;;;23.91;46.12;100200.56;5038275;28;20037;-69
2021/07/27 00:55:16;;;;;;;8.95;4.15;;;;;;;23.70;45.31;100196.59;5033038;28;20343;-69
2021/07/27 00:57:41;;;;;;;13.07;4.38;;;;;;;23.56;45.13;100207.66;5033018;28;20030;-69
2021/07/27 01:00:07;;;;;;;8.10;4.00;;;;;;;23.53;45.86;100200.00;5039099;28;20017;-72
2021/07/27 01:02:32;;;;;;;9.20;3.90;;;;;;;23.47;46.43;100195.53;5033152;28;20044;-69
2021/07/27 01:04:58;;;;;;;9.93;4.50;;;;;;;23.43;45.67;100199.75;5027804;28;20078;-69
2021/07/27 01:07:25;;;;;;;8.07;4.57;;;;;;;23.51;46.37;100212.91;5034507;28;20029;-69
2021/07/27 01:09:51;;;;;;;11.95;4.47;;;;;;;23.58;45.91;100209.31;5035745;28;20037;-69
2021/07/27 01:12:16;;;;;;;10.18;4.20;;;;;;;23.65;45.63;100218.94;5034821;28;20119;-72
2021/07/27 01:14:42;;;;;;;18.13;4.93;;;;;;;23.70;45.66;100204.72;5039084;28;20029;-69
2021/07/27 01:17:07;;;;;;;8.93;4.13;;;;;;;23.56;45.58;100212.25;5032773;28;20049;-69
2021/07/27 01:43:46;;;;;;;10.60;4.35;;;;;;;23.09;48.29;100208.66;5036485;28;20096;-69
2021/07/27 01:46:13;;;;;;;9.23;4.20;;;;;;;22.95;48.55;100210.75;5042397;28;20381;-69
2021/07/27 01:48:39;;;;;;;8.20;4.07;;;;;;;23.01;48.28;100219.81;5042304;28;20046;-72
2021/07/27 01:51:04;;;;;;;9.43;4.18;;;;;;;23.12;48.17;100216.28;5042338;28;20115;-69
2021/07/27 01:53:50;;;;;;;10.55;4.47;;;;;;;23.01;47.98;100220.63;5040456;28;20064;-69
2021/07/27 01:56:17;;;;;;;7.45;4.38;;;;;;;22.95;48.66;100237.75;5040497;28;20045;-69
2021/07/27 01:58:45;;;;;;;8.57;4.28;;;;;;;23.05;48.40;100240.72;5036783;28;20037;-69
2021/07/27 02:01:11;;;;;;;7.95;3.90;;;;;;;23.10;48.54;100234.63;5041757;28;20045;-72
2021/07/27 02:03:36;;;;;;;12.25;4.80;;;;;;;22.97;49.04;100237.53;5035500;28;20266;-69
2021/07/27 02:06:02;;;;;;;12.27;4.00;;;;;;;22.92;49.59;100230.94;5032746;28;20041;-69
2021/07/27 02:08:28;;;;;;;11.25;4.78;;;;;;;22.89;49.89;100234.09;5042101;28;20210;-72
2021/07/27 02:11:05;;;;;;;9.52;4.50;;;;;;;22.73;49.73;100231.16;5033468;28;20125;-69
2021/07/27 02:13:32;;;;;;;11.75;4.55;;;;;;;22.71;49.97;100227.88;5040124;28;20021;-69
2021/07/27 02:15:59;;;;;;;5.40;4.40;;;;;;;22.65;50.36;100229.63;5040543;28;20053;-69
2021/07/27 02:18:26;;;;;;;16.10;4.70;;;;;;;22.47;50.25;100218.88;5037485;28;20033;-72
2021/07/27 02:20:53;;;;;;;11.80;4.72;;;;;;;22.60;50.52;100226.78;5039306;28;20350;-69
2021/07/27 02:23:19;;;;;;;12.38;4.60;;;;;;;22.42;51.10;100224.13;5038693;28;20025;-69
2021/07/27 02:25:45;;;;;;;10.75;4.78;;;;;;;22.28;51.52;100236.97;5037996;28;20515;-69
2021/07/27 02:28:15;;;;;;;11.90;4.50;;;;;;;22.25;51.36;100232.00;5033261;28;20049;-72
2021/07/27 02:31:00;;;;;;;7.60;4.70;;;;;;;22.41;50.63;100236.78;5034755;28;20079;-69
2021/07/27 02:33:25;;;;;;;;;;;;;;;22.32;50.71;100237.31;5042086;28;20155;-69
2021/07/27 02:35:52;;;;;;;8.93;4.15;;;;;;;22.13;51.56;100199.59;5041740;28;20195;-69
2021/07/27 02:38:18;;;;;;;13.27;4.78;;;;;;;22.53;51.04;100231.44;5035318;28;20068;-72
2021/07/27 02:40:43;;;;;;;8.20;4.57;;;;;;;22.18;52.42;100237.50;5035922;28;20251;-69
2021/07/27 02:43:10;;;;;;;11.40;5.00;;;;;;;21.95;53.07;100234.63;5040983;28;20037;-69
2021/07/27 02:45:36;;;;;;;12.27;5.55;;;;;;;21.83;53.12;100226.41;5041777;28;20350;-69
2021/07/27 02:48:05;;;;;;;14.23;5.80;;;;;;;22.08;52.69;100231.81;5041159;28;20041;-72
2021/07/27 02:50:36;;;;;;;9.60;4.22;;;;;;;22.30;51.86;100229.47;5035027;28;20030;-68
2021/07/27 02:53:02;;;;;;;17.23;4.95;;;;;;;22.32;51.76;100234.63;5034918;28;20029;-69
2021/07/27 02:55:28;;;;;;;10.43;5.53;;;;;;;22.35;51.75;100240.41;5030512;28;20045;-72
2021/07/27 02:57:53;;;;;;;6.22;4.72;;;;;;;22.34;52.28;100235.22;5041084;28;20074;-69
2021/07/27 03:00:19;;;;;;;11.75;5.28;;;;;;;22.32;52.07;100238.16;5041451;28;20087;-69
2021/07/27 03:02:45;;;;;;;10.43;4.60;;;;;;;22.28;52.43;100236.97;5041046;28;20109;-69
2021/07/27 03:05:12;;;;;;;17.42;5.32;;;;;;;22.28;52.46;100235.09;5025969;28;20029;-72
2021/07/27 03:10:20;;;;;;;16.40;5.63;;;;;;;22.41;51.85;100236.78;5040872;28;20072;-69
2021/07/27 03:12:46;;;;;;;12.10;5.82;;;;;;;22.41;52.05;100247.59;5040856;28;20056;-69
2021/07/27 03:15:12;;;;;;;13.88;5.32;;;;;;;22.50;51.48;100240.00;5034028;28;20025;-72
2021/07/27 03:17:37;;;;;;;20.63;6.30;;;;;;;22.50;51.57;100258.88;5034822;28;20033;-69
2021/07/27 03:20:15;;;;;;;17.00;5.32;;;;;;;22.64;51.39;100257.66;5034976;28;20040;-69
2021/07/27 03:22:42;;;;;;;13.32;5.35;;;;;;;22.70;50.74;100258.63;5034820;28;20227;-72
2021/07/27 03:25:14;;;;;;;15.02;7.03;;;;;;;22.53;50.91;100267.34;5025183;28;20026;-69
2021/07/27 03:27:41;;;;;;;14.35;6.40;;;;;;;22.48;50.83;100271.78;5031635;28;20057;-69
2021/07/27 03:30:07;;;;;;;18.27;7.03;;;;;;;22.52;51.03;100268.41;5034580;28;20274;-72
2021/07/27 03:32:33;;;;;;;16.08;6.30;;;;;;;22.48;51.02;100269.91;5026422;28;20312;-69
2021/07/27 03:34:58;;;;;;;21.27;6.35;;;;;;;22.49;51.66;100268.84;5024582;28;20095;-69
2021/07/27 03:37:24;;;;;;;15.55;6.10;;;;;;;22.57;51.62;100275.81;5026464;28;20071;-69
2021/07/27 03:39:49;;;;;;;14.50;6.10;;;;;;;22.74;51.52;100271.44;5024894;28;20018;-71
2021/07/27 03:42:15;;;;;;;28.52;6.53;;;;;;;22.82;51.45;100273.84;5024472;28;20038;-71
2021/07/27 03:44:40;;;;;;;35.42;13.13;;;;;;;22.90;50.96;100259.22;5024634;28;20029;-69
2021/07/27 03:47:07;;;;;;;16.35;8.82;;;;;;;22.52;51.40;100259.47;5024470;28;20034;-69
2021/07/27 03:49:33;;;;;;;25.27;8.48;;;;;;;22.57;50.77;100271.25;5025707;28;20041;-69
2021/07/27 03:52:03;;;;;;;20.52;8.75;;;;;;;22.67;49.98;100270.69;5025782;28;20603;-72
2021/07/27 03:54:30;;;;;;;22.40;9.23;;;;;;;22.76;49.92;100268.50;5022964;28;20037;-69
2021/07/27 03:56:55;;;;;;;32.53;8.65;;;;;;;22.85;49.87;100273.38;5024121;28;20038;-69
2021/07/27 03:59:21;;;;;;;26.25;9.77;;;;;;;22.91;49.58;100274.38;5023271;28;20034;-69
2021/07/27 04:01:47;;;;;;;22.95;9.65;;;;;;;23.14;48.70;100266.34;5025962;28;20076;-72
2021/07/27 04:04:12;;;;;;;32.47;10.38;;;;;;;23.16;48.84;100266.94;5024643;28;20026;-69
2021/07/27 04:06:38;;;;;;;23.52;10.57;;;;;;;23.32;48.38;100261.91;5025485;28;20070;-69
2021/07/27 04:09:04;;;;;;;34.83;10.20;;;;;;;23.19;48.95;100271.03;5023627;28;20038;-72
2021/07/27 04:11:29;;;;;;;20.35;10.00;;;;;;;23.36;49.03;100271.19;5024028;28;20045;-69
2021/07/27 04:13:55;;;;;;;23.42;9.68;;;;;;;23.49;48.72;100270.97;5025021;28;20033;-69
2021/07/27 04:16:20;;;;;;;39.35;10.40;;;;;;;23.49;49.14;100271.78;5020050;28;20036;-69
2021/07/27 04:18:47;;;;;;;29.05;11.18;;;;;;;23.62;49.04;100273.47;5026589;28;20037;-70
2021/07/27 04:21:13;;;;;;;33.40;12.48;;;;;;;23.71;48.58;100269.38;5023532;28;20040;-69
2021/07/27 04:23:38;;;;;;;42.80;14.95;;;;;;;23.66;48.62;100266.53;5023875;28;20046;-69
2021/07/27 04:26:03;;;;;;;36.78;13.10;;;;;;;23.78;48.36;100280.06;5025102;28;20022;-72
2021/07/27 04:28:29;;;;;;;27.33;12.30;;;;;;;23.89;48.29;100277.34;5023454;28;20026;-69
2021/07/27 04:30:54;;;;;;;31.38;10.90;;;;;;;23.80;48.34;100269.84;5025936;28;20044;-69
2021/07/27 04:33:32;;;;;;;27.02;9.90;;;;;;;23.81;48.21;100264.19;5024250;28;20133;-72
2021/07/27 04:35:58;;;;;;;21.02;9.07;;;;;;;23.93;48.52;100275.03;5025637;28;20025;-69
2021/07/27 04:38:23;;;;;;;24.67;8.57;;;;;;;24.30;47.46;100272.88;5023441;28;20346;-69
2021/07/27 04:40:53;;;;;;;26.77;7.85;;;;;;;24.33;47.40;100274.28;5023461;28;20033;-70
2021/07/27 04:43:18;;;;;;;15.90;7.50;;;;;;;24.43;47.16;100278.03;5024259;28;20045;-70
2021/07/27 04:45:44;;;;;;;14.43;7.30;;;;;;;24.55;46.94;100280.69;5023951;28;20029;-69
2021/07/27 04:48:09;;;;;;;14.43;7.28;;;;;;;24.82;46.69;100273.63;5005466;28;20052;-72
2021/07/27 04:50:38;;;;;;;28.67;7.95;;;;;;;25.00;46.24;100279.97;5023309;28;20215;-70
2021/07/27 04:53:09;;;;;;;22.50;7.35;;;;;;;25.23;46.34;100285.25;5025793;28;20040;-70
2021/07/27 04:55:35;;;;;;;17.10;7.25;;;;;;;25.30;45.12;100287.81;5024172;28;20029;-69
2021/07/27 04:58:04;;;;;;;21.90;11.32;;;;;;;25.29;45.54;100283.47;5023175;28;20042;-72
2021/07/27 05:00:29;;;;;;;18.60;7.72;;;;;;;25.52;45.23;100282.47;5023841;28;20034;-69
2021/07/27 05:02:58;;;;;;;22.33;8.00;;;;;;;25.71;44.49;100281.19;5025926;28;20105;-69
2021/07/27 05:05:24;;;;;;;23.13;7.60;;;;;;;25.80;44.14;100284.28;5026164;28;20308;-72
2021/07/27 05:07:51;;;;;;;21.23;7.03;;;;;;;25.94;43.87;100282.88;5023113;28;20049;-69
2021/07/27 05:10:17;;;;;;;20.15;7.15;;;;;;;26.42;42.30;100286.81;5025428;28;20185;-69
2021/07/27 05:12:43;;;;;;;20.88;6.85;;;;;;;26.74;42.02;100282.28;5023893;28;20026;-72
2021/07/27 05:15:09;;;;;;;23.52;6.40;;;;;;;26.89;40.99;100279.75;5024414;28;20307;-69
2021/07/27 05:17:35;;;;;;;21.98;6.43;;;;;;;27.06;40.83;100276.97;5022453;28;20076;-69
2021/07/27 05:20:00;;;;;;;24.67;7.13;;;;;;;27.34;40.34;100286.72;5022608;28;20029;-72
2021/07/27 05:22:26;;;;;;;25.77;7.07;;;;;;;27.75;39.66;100296.06;5022405;28;20361;-70
2021/07/27 05:24:55;;;;;;;21.08;6.82;;;;;;;27.91;38.32;100280.66;5025118;28;20026;-70
2021/07/27 05:27:22;;;;;;;31.40;11.98;;;;;;;27.94;37.52;100282.84;5024826;28;20041;-73
2021/07/27 05:29:51;;;;;;;45.30;18.63;;;;;;;28.17;36.84;100290.63;5022521;28;20033;-70
2021/07/27 05:32:17;;;;;;;32.40;14.73;;;;;;;28.44;36.02;100292.41;5024658;28;20061;-70
2021/07/27 05:34:43;;;;;;;33.33;15.00;;;;;;;28.85;35.42;100286.00;5024099;28;20323;-73
2021/07/27 05:37:09;;;;;;;39.33;13.30;;;;;;;29.19;35.24;100291.00;5023073;28;20030;-70
2021/07/27 05:39:34;;;;;;;23.80;9.48;;;;;;;29.35;35.18;100289.91;5022367;28;20057;-70
2021/07/27 05:42:00;;;;;;;12.57;6.80;;;;;;;29.35;35.02;100278.19;5023993;28;20100;-70
2021/07/27 05:44:26;;;;;;;13.50;6.07;;;;;;;29.64;34.57;100284.75;5023551;28;20036;-72
2021/07/27 05:46:53;;;;;;;14.00;5.85;;;;;;;29.37;34.95;100276.81;5023307;28;20022;-70
2021/07/27 05:49:20;;;;;;;14.10;7.32;;;;;;;29.53;34.64;100283.13;5003782;28;20034;-73
2021/07/27 05:51:46;;;;;;;12.18;6.25;;;;;;;29.85;34.30;100282.78;5022838;28;20263;-70
2021/07/27 05:54:12;;;;;;;12.05;6.18;;;;;;;30.14;33.63;100269.38;5024419;28;20039;-70
2021/07/27 05:56:37;;;;;;;13.23;6.50;;;;;;;30.41;32.83;100269.81;5023126;28;20038;-73
2021/07/27 05:59:03;;;;;;;14.40;5.93;;;;;;;30.48;33.10;100262.16;5024271;28;20299;-70
2021/07/27 06:01:28;;;;;;;14.52;5.65;;;;;;;30.72;32.90;100256.03;5024590;28;20041;-70
2021/07/27 06:03:55;;;;;;;20.55;5.63;;;;;;;30.78;32.07;100266.66;5021257;28;20026;-70
2021/07/27 06:06:20;;;;;;;23.52;5.50;;;;;;;31.10;31.27;100254.38;5023138;28;20041;-73
2021/07/27 06:08:46;;;;;;;13.68;5.88;;;;;;;31.55;31.12;100263.38;5005231;28;20311;-70
2021/07/27 06:11:13;;;;;;;15.77;6.63;;;;;;;31.92;30.82;100260.81;5023384;28;20034;-70
2021/07/27 06:13:39;;;;;;;20.85;6.18;;;;;;;32.15;30.07;100253.69;5023680;28;20041;-73
2021/07/27 06:16:05;;;;;;;13.55;5.35;;;;;;;32.57;29.49;100252.13;5022435;28;20026;-70
2021/07/27 06:18:32;;;;;;;16.80;5.55;;;;;;;32.96;29.26;100247.16;5026815;28;20327;-70
2021/07/27 06:20:58;;;;;;;14.77;5.32;;;;;;;32.79;28.52;100243.31;5025970;28;20116;-73
2021/07/27 06:23:23;;;;;;;14.10;5.50;;;;;;;33.02;27.99;100245.16;5028682;28;20021;-70
2021/07/27 06:25:48;;;;;;;17.45;5.60;;;;;;;32.48;28.03;100245.66;5009372;28;20065;-70
2021/07/27 06:28:14;;;;;;;13.18;4.97;;;;;;;32.70;27.92;100248.63;5027125;28;20192;-73
2021/07/27 06:30:39;;;;;;;9.93;5.05;;;;;;;32.84;28.28;100240.50;5027767;28;20048;-70
2021/07/27 06:33:05;;;;;;;14.70;5.38;;;;;;;33.10;26.79;100240.91;5026242;28;20052;-70
2021/07/27 06:35:30;;;;;;;15.23;5.10;;;;;;;33.30;27.20;100235.97;5027341;28;20200;-73
2021/07/27 06:37:55;;;;;;;11.40;4.78;;;;;;;32.87;27.05;100240.72;5025547;28;20042;-71
2021/07/27 06:40:21;;;;;;;19.77;5.45;;;;;;;33.17;26.79;100241.34;5027033;28;20037;-70
2021/07/27 06:42:46;;;;;;;11.10;6.25;;;;;;;33.58;26.22;100236.00;5026501;28;20026;-73
2021/07/27 06:45:12;;;;;;;11.05;6.05;;;;;;;34.04;26.26;100237.91;5025559;28;20036;-70
2021/07/27 06:47:38;;;;;;;14.18;5.45;;;;;;;33.88;25.75;100232.72;5027544;28;20368;-70
2021/07/27 06:50:03;;;;;;;19.90;5.57;;;;;;;34.12;25.47;100229.75;5025667;28;20029;-73
2021/07/27 06:52:29;;;;;;;14.05;5.15;;;;;;;34.24;25.28;100229.22;5024204;28;20093;-70
2021/07/27 06:54:54;;;;;;;13.27;5.80;;;;;;;34.16;24.93;100221.72;5025175;28;20361;-71
2021/07/27 06:57:19;;;;;;;12.23;5.43;;;;;;;34.55;25.04;100232.19;5026583;28;20044;-73
2021/07/27 06:59:45;;;;;;;12.73;5.68;;;;;;;34.40;24.60;100224.28;5028313;28;20029;-71
2021/07/27 07:02:10;;;;;;;14.25;5.82;;;;;;;34.64;24.98;100218.50;5025687;28;20034;-71
2021/07/27 07:04:36;;;;;;;10.57;5.75;;;;;;;34.93;23.53;100226.38;5025423;28;20083;-73
2021/07/27 07:07:01;;;;;;;11.80;5.57;;;;;;;34.57;24.60;100222.50;5025756;28;20818;-71
2021/07/27 07:09:27;;;;;;;18.08;6.00;;;;;;;34.46;24.49;100215.59;5026422;28;20025;-70
2021/07/27 07:11:52;;;;;;;12.73;5.28;;;;;;;34.41;24.19;100212.16;5025278;28;20041;-73
2021/07/27 07:14:18;;;;;;;12.23;5.78;;;;;;;34.41;25.04;100203.91;5024278;28;20018;-71
2021/07/27 07:16:43;;;;;;;11.35;6.15;;;;;;;34.25;24.94;100212.44;5024850;28;20048;-71
2021/07/27 07:19:09;;;;;;;11.98;6.03;;;;;;;34.54;24.06;100208.56;5026409;28;20035;-72
2021/07/27 07:21:34;;;;;;;19.77;5.90;;;;;;;34.85;23.71;100211.44;5024924;28;20053;-70
2021/07/27 07:23:59;;;;;;;13.73;4.88;;;;;;;35.08;23.10;100210.28;5024883;28;20479;-73
2021/07/27 07:26:25;;;;;;;9.02;4.90;;;;;;;34.94;22.90;100217.81;5025074;28;20045;-71
2021/07/27 07:28:51;;;;;;;11.63;4.70;;;;;;;35.06;23.77;100218.06;5024922;28;20026;-71
2021/07/27 07:31:16;;;;;;;12.90;5.32;;;;;;;35.35;23.58;100214.03;5024263;28;20029;-73
2021/07/27 07:33:43;;;;;;;15.48;5.32;;;;;;;35.61;22.97;100215.00;5023153;28;20033;-71
2021/07/27 07:36:13;;;;;;;11.88;5.57;;;;;;;35.40;23.65;100216.69;5021804;28;20243;-71
2021/07/27 07:38:40;;;;;;;7.85;5.25;;;;;;;35.23;23.44;100217.34;5028023;28;20440;-73
2021/07/27 07:41:10;;;;;;;12.88;5.13;;;;;;;35.57;23.37;100225.03;5031890;28;20113;-71
2021/07/27 07:43:36;;;;;;;19.25;5.78;;;;;;;35.83;23.15;100225.19;5026594;28;20053;-71
2021/07/27 07:46:02;;;;;;;10.00;5.03;;;;;;;36.06;22.77;100218.44;5022567;28;20033;-73
2021/07/27 07:48:27;;;;;;;13.23;5.65;;;;;;;35.81;22.73;100217.22;5021216;28;20030;-71
2021/07/27 07:50:53;;;;;;;12.13;4.85;;;;;;;35.77;22.58;100210.69;5025792;28;20040;-73
2021/07/27 07:53:18;;;;;;;13.75;5.30;;;;;;;35.64;23.00;100206.13;5022498;28;20255;-71
2021/07/27 07:55:44;;;;;;;12.52;5.18;;;;;;;36.11;22.84;100206.44;5021517;28;20328;-71
2021/07/27 07:58:09;;;;;;;10.35;4.72;;;;;;;36.52;21.97;100199.75;5022742;28;20212;-73
2021/07/27 08:00:34;;;;;;;14.45;5.10;;;;;;;36.83;21.32;100200.41;5022621;28;20050;-71
2021/07/27 08:03:03;;;;;;;9.13;5.25;;;;;;;36.42;21.82;100190.66;5021375;28;20250;-71
2021/07/27 08:05:29;;;;;;;15.95;5.45;;;;;;;36.29;22.29;100193.53;5022884;28;20438;-73
2021/07/27 08:07:55;;;;;;;7.90;4.90;;;;;;;35.79;22.19;100196.59;5004705;28;20029;-71
2021/07/27 08:10:21;;;;;;;5.70;4.55;;;;;;;36.09;21.94;100187.47;5004732;28;20025;-71
2021/07/27 08:12:47;;;;;;;11.13;5.22;;;;;;;36.17;21.79;100183.13;5021502;28;20053;-72
2021/07/27 08:15:17;;;;;;;6.25;5.13;;;;;;;36.25;21.44;100185.06;5024101;28;20374;-71
2021/07/27 08:17:43;;;;;;;9.48;5.07;;;;;;;36.05;22.28;100183.75;5022715;28;20438;-73
2021/07/27 08:20:10;;;;;;;15.93;5.82;;;;;;;36.51;22.46;100184.34;5021857;28;20105;-71
2021/07/27 08:22:39;;;;;;;8.93;4.93;;;;;;;36.75;21.43;100177.19;5023221;28;20030;-71
2021/07/27 08:25:06;;;;;;;20.70;5.40;;;;;;;36.67;21.89;100178.00;5021429;28;20322;-71
2021/07/27 08:27:32;;;;;;;9.23;4.90;;;;;;;36.73;21.46;100184.16;5022109;28;20033;-71
2021/07/27 08:29:57;;;;;;;11.20;5.25;;;;;;;36.82;21.81;100176.72;5021837;28;20033;-73
2021/07/27 08:32:23;;;;;;;10.45;4.80;;;;;;;36.92;21.18;100179.13;5004855;28;20323;-71
2021/07/27 08:34:48;;;;;;;12.35;5.75;;;;;;;37.21;21.26;100183.94;5023411;28;20078;-71
2021/07/27 08:37:15;;;;;;;9.27;4.68;;;;;;;37.21;20.96;100174.84;5021026;28;20346;-73
2021/07/27 08:39:40;;;;;;;14.80;4.95;;;;;;;36.99;20.46;100167.59;5021747;28;20041;-71
2021/07/27 08:42:07;;;;;;;10.63;4.75;;;;;;;37.08;21.75;100171.97;5022016;28;20217;-73
2021/07/27 08:44:36;;;;;;;14.38;5.00;;;;;;;36.62;20.89;100163.56;5003221;28;20057;-71
2021/07/27 08:47:03;;;;;;;7.95;4.93;;;;;;;36.43;21.78;100156.44;5031811;28;20037;-71
2021/07/27 08:49:29;;;;;;;9.75;4.68;;;;;;;36.59;21.42;100159.50;5021600;28;20204;-73
2021/07/27 08:51:55;;;;;;;12.32;5.03;;;;;;;36.95;21.63;100158.34;5021853;28;20037;-71
2021/07/27 08:54:21;;;;;;;12.18;5.07;;;;;;;36.89;22.39;100160.47;5020549;28;20030;-73
2021/07/27 08:56:47;;;;;;;10.68;5.22;;;;;;;36.78;21.53;100158.38;5021793;28;20048;-71
2021/07/27 08:59:14;;;;;;;11.88;4.97;;;;;;;36.72;20.93;100153.00;5021451;28;20017;-71
2021/07/27 09:01:39;;;;;;;10.55;4.60;;;;;;;37.08;21.22;100144.34;5022295;28;20092;-73
2021/07/27 09:04:04;;;;;;;8.60;4.93;;;;;;;37.30;21.46;100146.09;5028745;28;20438;-71
2021/07/27 09:06:30;;;;;;;9.40;5.18;;;;;;;37.53;21.04;100143.09;5023186;28;20034;-71
2021/07/27 09:09:05;;;;;;;12.02;4.88;;;;;;;37.54;20.95;100142.78;5022598;28;20026;-73
2021/07/27 09:11:31;;;;;;;5.68;4.50;;;;;;;37.34;20.97;100147.06;5023645;28;20033;-71
2021/07/27 09:13:57;;;;;;;11.45;4.95;;;;;;;37.16;21.04;100144.66;5022784;28;20044;-71
2021/07/27 09:16:22;;;;;;;13.65;5.35;;;;;;;36.76;21.92;100150.44;5024239;28;20030;-73
2021/07/27 09:18:58;;;;;;;10.45;5.07;;;;;;;36.62;22.35;100149.78;5022721;28;20029;-71
2021/07/27 09:21:24;;;;;;;18.15;5.43;;;;;;;36.73;22.09;100146.34;5023263;28;20034;-73
2021/07/27 09:23:50;;;;;;;11.98;5.15;;;;;;;36.96;20.70;100144.22;5025166;28;20256;-71
2021/07/27 09:26:15;;;;;;;11.98;5.13;;;;;;;37.19;20.84;100146.75;5022380;28;20084;-71
2021/07/27 09:28:41;;;;;;;9.02;4.40;;;;;;;37.29;21.33;100144.47;5023107;28;20332;-73
2021/07/27 09:31:06;;;;;;;10.85;5.40;;;;;;;37.48;20.97;100137.75;5021402;28;20219;-71
2021/07/27 09:33:33;;;;;;;14.13;5.55;;;;;;;37.59;21.39;100139.00;5023720;28;20365;-71
2021/07/27 09:36:01;;;;;;;6.45;4.80;;;;;;;37.54;20.98;100144.72;5023620;28;20107;-73
2021/07/27 09:38:31;;;;;;;11.48;4.90;;;;;;;37.25;21.90;100139.94;5024014;28;20045;-71
2021/07/27 09:41:00;;;;;;;10.93;5.45;;;;;;;37.00;21.78;100134.16;5024382;28;20034;-73
2021/07/27 09:43:27;;;;;;;9.27;5.28;;;;;;;36.46;22.04;100135.66;5012868;28;20113;-71
2021/07/27 09:46:00;;;;;;;10.75;5.25;;;;;;;35.75;22.92;100135.81;5023860;28;20215;-70
2021/07/27 09:48:27;;;;;;;13.70;5.20;;;;;;;35.20;22.77;100132.63;5024707;28;20025;-73
2021/07/27 09:50:54;;;;;;;7.63;5.05;;;;;;;35.47;23.29;100138.00;5022714;28;20037;-70
2021/07/27 09:53:21;;;;;;;7.82;5.45;;;;;;;35.28;22.72;100131.06;5023649;28;20054;-71
2021/07/27 09:55:46;;;;;;;11.00;5.55;;;;;;;35.06;22.91;100137.44;5023767;28;20367;-73
2021/07/27 09:58:13;;;;;;;14.35;5.72;;;;;;;35.15;22.83;100133.59;5024635;28;20029;-70
2021/07/27 10:00:50;;;;;;;11.32;5.30;;;;;;;35.21;23.11;100126.81;5024540;28;20041;-71
2021/07/27 10:03:24;;;;;;;9.93;4.93;;;;;;;34.67;23.90;100121.63;5028150;28;20029;-71
2021/07/27 10:06:01;;;;;;;13.00;5.60;;;;;;;34.47;23.87;100111.94;5023847;28;20052;-70
2021/07/27 10:08:28;;;;;;;11.07;5.22;;;;;;;34.47;23.86;100107.25;5025687;28;20035;-73
2021/07/27 10:11:05;;;;;;;9.20;5.32;;;;;;;34.46;23.50;100104.81;5025736;28;20104;-70
2021/07/27 10:13:40;;;;;;;9.88;5.18;;;;;;;34.27;24.16;100089.25;5024029;28;20030;-70
2021/07/27 10:16:06;;;;;;;13.98;5.55;;;;;;;34.23;24.35;100091.00;5025424;28;20243;-73
2021/07/27 10:18:33;;;;;;;15.85;5.55;;;;;;;34.47;24.44;100090.75;5024359;28;20045;-71
2021/07/27 10:21:20;;;;;;;8.15;5.80;;;;;;;34.28;24.10;100084.56;5023970;28;20044;-73
2021/07/27 10:23:45;;;;;;;7.38;5.35;;;;;;;34.26;24.27;100082.13;5024685;28;20048;-70
2021/07/27 10:26:11;;;;;;;11.07;5.03;;;;;;;34.19;23.47;100083.69;5025138;28;20231;-73
2021/07/27 10:28:37;;;;;;;9.35;4.93;;;;;;;34.38;24.41;100078.06;5025084;28;20274;-71
2021/07/27 10:31:07;;;;;;;10.93;4.88;;;;;;;34.51;23.62;100078.00;5026009;28;20033;-71
2021/07/27 10:33:34;;;;;;;10.18;4.95;;;;;;;34.53;23.61;100080.44;5028973;28;20038;-73
2021/07/27 10:36:00;;;;;;;6.18;4.80;;;;;;;34.57;23.87;100071.25;5025837;28;20125;-71
2021/07/27 10:38:36;;;;;;;12.48;4.70;;;;;;;34.77;22.64;100071.84;5024218;28;20030;-71
2021/07/27 10:41:18;;;;;;;11.02;6.43;;;;;;;34.86;23.29;100070.00;5030062;28;20029;-73
2021/07/27 10:43:44;;;;;;;9.07;4.90;;;;;;;34.76;22.91;100070.22;5024089;28;20049;-71
2021/07/27 10:46:11;;;;;;;11.65;5.32;;;;;;;34.89;23.19;100070.16;5023852;28;20065;-71
2021/07/27 10:48:40;;;;;;;13.38;5.30;;;;;;;34.88;23.22;100074.03;5024015;28;20041;-73
2021/07/27 10:51:09;;;;;;;10.15;5.30;;;;;;;34.98;22.96;100066.66;5023282;28;20056;-71
2021/07/27 10:53:35;;;;;;;14.57;5.68;;;;;;;34.87;24.87;100061.41;5023349;28;20034;-73
2021/07/27 10:56:10;;;;;;;8.05;5.00;;;;;;;34.53;25.56;100056.50;5024156;28;20037;-70
2021/07/27 10:58:36;;;;;;;10.52;5.78;;;;;;;34.31;24.84;100053.69;5023294;28;20041;-70
2021/07/27 11:01:09;;;;;;;11.25;5.35;;;;;;;34.47;25.94;100056.94;5024079;28;20046;-73
2021/07/27 11:03:34;;;;;;;12.40;5.72;;;;;;;34.34;25.00;100042.13;5023618;28;20056;-70
2021/07/27 11:06:01;;;;;;;14.05;6.00;;;;;;;34.16;27.02;100045.81;5023957;28;20058;-72
2021/07/27 11:08:27;;;;;;;14.43;5.75;;;;;;;33.96;26.04;100044.38;5022599;28;20037;-70
2021/07/27 11:11:09;;;;;;;10.18;5.20;;;;;;;34.08;25.56;100041.06;5022740;28;20037;-70
2021/07/27 11:13:35;;;;;;;9.50;5.22;;;;;;;34.34;25.26;100038.56;5022703;28;20045;-73
2021/07/27 11:16:02;;;;;;;9.93;5.72;;;;;;;34.56;25.65;100033.06;5023476;28;20062;-70
2021/07/27 11:18:28;;;;;;;12.38;5.65;;;;;;;34.80;24.67;100027.19;5023979;28;20062;-70
2021/07/27 11:20:55;;;;;;;6.45;5.03;;;;;;;34.45;24.83;100035.25;5023109;28;20251;-73
2021/07/27 11:23:21;;;;;;;11.70;5.40;;;;;;;34.41;25.33;100027.94;5024083;28;20037;-70
2021/07/27 11:25:53;;;;;;;9.10;4.93;;;;;;;34.29;24.87;100022.97;5023223;28;20172;-70
2021/07/27 11:28:20;;;;;;;11.02;5.00;;;;;;;34.40;23.96;100024.41;5022974;28;20298;-73
2021/07/27 11:30:46;;;;;;;10.57;5.13;;;;;;;34.42;25.16;100022.13;5023908;28;20032;-70
2021/07/27 11:33:15;;;;;;;9.48;5.03;;;;;;;34.70;23.96;100022.78;5025629;28;20365;-70
2021/07/27 11:35:46;;;;;;;7.72;5.35;;;;;;;34.73;24.14;100022.16;5025574;28;20036;-71
2021/07/27 11:38:22;;;;;;;10.95;4.85;;;;;;;34.66;24.62;100016.28;5024840;28;20025;-70
2021/07/27 11:40:50;;;;;;;10.98;4.85;;;;;;;34.67;24.12;100009.66;5024324;28;20418;-73
2021/07/27 11:43:17;;;;;;;6.60;4.80;;;;;;;34.72;24.11;100015.03;5019026;28;20029;-70
2021/07/27 11:45:44;;;;;;;9.70;4.65;;;;;;;34.62;23.63;100009.81;5027754;28;20276;-70